Time;durP1;ratioP1;P1;durP2;ratioP2;P2;SDS_P1;SDS_P2;PMS_P1;PMS_P2;Temp;Humidity;BMP_temperature;BMP_pressure;BME280_temperature;BME280_humidity;BME280_pressure;Samples;Min_cycle;Max_cycle;Signal;HPM_P1;HPM_P2
2021/08/07 00:01:02;;;;;;;;;1.00;1.00;;;;;20.19;56.98;100423.91;4932456;28;45495;-82
2021/08/07 00:03:28;;;;;;;;;0.25;0.25;;;;;20.20;56.72;100435.44;4961871;28;45397;-83
2021/08/07 00:05:53;;;;;;;;;1.00;1.00;;;;;20.13;56.82;100427.91;4959380;28;45508;-82
2021/08/07 00:08:19;;;;;;;;;1.00;1.00;;;;;20.07;56.99;100419.53;4948766;28;45345;-83
2021/08/07 00:10:45;;;;;;;;;0.75;0.75;;;;;20.04;57.29;100422.41;4942954;28;45465;-83
2021/08/07 00:13:10;;;;;;;;;0.75;0.75;;;;;20.05;57.29;100427.63;4955866;28;45565;-83
2021/08/07 00:15:36;;;;;;;;;3.00;2.00;;;;;20.05;57.34;100434.78;4961548;28;45551;-83
2021/08/07 00:18:02;;;;;;;;;3.00;2.00;;;;;20.02;57.05;100426.06;4952077;28;45448;-86
2021/08/07 00:20:27;;;;;;;;;1.25;1.00;;;;;20.05;57.35;100426.78;4942698;28;45230;-85
2021/08/07 00:22:53;;;;;;;;;1.50;1.50;;;;;20.06;57.21;100420.47;4942852;28;45409;-85
2021/08/07 00:25:18;;;;;;;;;1.00;1.00;;;;;20.08;57.66;100423.88;4940426;28;46897;-85
2021/08/07 00:27:44;;;;;;;;;0.00;0.00;;;;;20.07;57.50;100422.19;4945588;28;45290;-83
2021/08/07 00:30:11;;;;;;;;;0.25;0.25;;;;;20.05;57.73;100419.63;4955987;28;45517;-83
2021/08/07 00:32:37;;;;;;;;;1.50;1.00;;;;;20.02;57.21;100420.75;4954501;28;46101;-83
2021/08/07 00:35:03;;;;;;;;;2.00;0.75;;;;;19.98;57.32;100413.06;4961158;28;45435;-83
2021/08/07 00:37:29;;;;;;;;;0.00;0.00;;;;;19.98;57.41;100418.41;4943101;28;45301;-83
2021/08/07 00:39:54;;;;;;;;;0.25;0.25;;;;;19.94;57.37;100407.16;4942409;28;45430;-83
2021/08/07 00:42:20;;;;;;;;;0.00;0.00;;;;;19.95;57.59;100408.81;4925020;28;45461;-84
2021/08/07 00:44:45;;;;;;;;;0.50;0.50;;;;;19.98;57.93;100416.59;4938195;28;46963;-83
2021/08/07 00:47:10;;;;;;;;;2.50;0.00;;;;;19.94;57.64;100411.63;4956520;28;45307;-81
2021/08/07 00:49:36;;;;;;;;;1.75;0.75;;;;;19.90;57.64;100416.38;4924870;28;45364;-82
2021/08/07 00:52:02;;;;;;;;;1.00;1.00;;;;;19.89;57.83;100414.66;4925189;28;45268;-82
2021/08/07 00:54:27;;;;;;;;;2.00;0.25;;;;;19.86;57.75;100410.41;4961136;28;46483;-82
2021/08/07 00:56:53;;;;;;;;;1.00;1.00;;;;;19.86;58.02;100402.41;4960954;28;45258;-82
2021/08/07 00:59:18;;;;;;;;;1.00;1.00;;;;;19.90;57.76;100405.69;4950518;28;45756;-83
2021/08/07 01:01:48;;;;;;;;;2.00;1.00;;;;;19.94;57.89;100401.81;4953790;28;45278;-83
2021/08/07 01:04:19;;;;;;;;;1.25;0.50;;;;;20.01;57.91;100403.03;4953339;28;46756;-82
2021/08/07 01:07:06;;;;;;;;;2.50;0.75;;;;;20.04;57.60;100406.41;4943437;28;45523;-82
2021/08/07 01:09:40;;;;;;;;;0.50;0.25;;;;;20.05;57.61;100392.94;4946287;28;45596;-83
2021/08/07 01:12:16;;;;;;;;;2.25;0.50;;;;;20.02;57.37;100383.41;4948727;28;45613;-84
2021/08/07 01:14:43;;;;;;;;;0.25;0.25;;;;;20.04;57.18;100390.41;4960539;28;46632;-84
2021/08/07 01:17:24;;;;;;;;;2.00;1.00;;;;;19.96;57.31;100389.19;4959543;28;45354;-85
2021/08/07 01:20:11;;;;;;;;;1.00;1.00;;;;;19.96;57.66;100394.53;4941986;28;45310;-82
2021/08/07 01:22:44;;;;;;;;;1.50;1.50;;;;;19.84;57.66;100387.50;4952575;28;45540;-81
2021/08/07 01:25:14;;;;;;;;;1.00;0.75;;;;;19.77;57.60;100387.13;4955073;28;46342;-81
2021/08/07 01:27:40;;;;;;;;;2.00;1.00;;;;;19.75;57.71;100389.94;4954414;28;45586;-82
2021/08/07 01:30:09;;;;;;;;;1.00;0.00;;;;;19.73;57.95;100383.84;4941728;28;45180;-85
2021/08/07 01:32:37;;;;;;;;;2.00;1.00;;;;;19.72;57.87;100387.50;4960057;28;45400;-85
2021/08/07 01:35:05;;;;;;;;;3.00;1.00;;;;;19.72;57.91;100379.50;4942851;28;48201;-85
2021/08/07 01:37:31;;;;;;;;;1.00;0.00;;;;;19.66;57.71;100382.63;4950822;28;45862;-86
2021/08/07 01:39:57;;;;;;;;;2.00;1.00;;;;;19.59;57.51;100378.72;4942233;28;45288;-85
2021/08/07 01:42:23;;;;;;;;;1.00;1.00;;;;;19.52;58.14;100373.91;4941428;28;45446;-84
2021/08/07 01:44:49;;;;;;;;;0.75;0.75;;;;;19.47;57.88;100383.19;4941276;28;46632;-83
2021/08/07 01:47:33;;;;;;;;;3.00;0.25;;;;;19.44;58.24;100381.63;4959401;28;45283;-83
2021/08/07 01:50:03;;;;;;;;;0.75;0.75;;;;;19.44;58.51;100379.81;4953338;28;45481;-83
2021/08/07 01:52:33;;;;;;;;;1.00;0.00;;;;;19.40;58.23;100378.34;4960130;28;45569;-83
2021/08/07 01:55:03;;;;;;;;;1.00;0.00;;;;;19.41;58.71;100372.03;4960335;28;46325;-84
2021/08/07 01:57:30;;;;;;;;;0.25;0.25;;;;;19.43;58.63;100369.28;4960697;28;45380;-84
2021/08/07 01:59:57;;;;;;;;;2.25;1.75;;;;;19.44;58.32;100370.97;4960046;28;45318;-84
2021/08/07 02:02:23;;;;;;;;;0.75;0.75;;;;;19.47;58.78;100364.53;4960357;28;45274;-83
2021/08/07 02:04:49;;;;;;;;;1.00;1.00;;;;;19.48;58.39;100364.44;4960466;28;45507;-94
2021/08/07 02:07:15;;;;;;;;;4.00;1.00;;;;;19.49;58.63;100378.59;4944087;28;45195;-94
2021/08/07 02:09:42;;;;;;;;;0.00;0.00;;;;;19.44;58.20;100362.97;4961496;28;45457;-95
2021/08/07 02:12:09;;;;;;;;;1.00;0.75;;;;;19.40;58.36;100369.50;4948145;28;45330;-93
2021/08/07 02:14:38;;;;;;;;;1.00;0.00;;;;;19.38;58.24;100364.31;4964889;28;46130;-94
2021/08/07 02:17:04;;;;;;;;;1.00;1.00;;;;;19.32;58.70;100360.28;4964111;28;45488;-90
2021/08/07 02:19:31;;;;;;;;;0.00;0.00;;;;;19.26;58.58;100359.91;4946250;28;45364;-91
2021/08/07 02:21:57;;;;;;;;;0.75;0.75;;;;;19.14;58.34;100362.50;4963311;28;45496;-87
2021/08/07 02:24:26;;;;;;;;;0.00;0.00;;;;;19.05;58.49;100363.19;4963980;28;46441;-83
2021/08/07 02:26:54;;;;;;;;;1.00;1.00;;;;;18.98;58.88;100353.03;4963614;28;45227;-88
2021/08/07 02:29:21;;;;;;;;;2.00;1.00;;;;;19.01;59.02;100357.25;4963671;28;45441;-89
2021/08/07 02:31:47;;;;;;;;;1.00;0.00;;;;;18.97;59.27;100359.28;4962832;28;45386;-89
2021/08/07 02:34:13;;;;;;;;;1.25;1.25;;;;;19.04;59.69;100349.03;4957425;28;46504;-88
2021/08/07 02:36:41;;;;;;;;;1.25;1.00;;;;;19.14;59.54;100340.34;4926805;28;45359;-87
2021/08/07 02:39:07;;;;;;;;;1.00;0.50;;;;;19.21;59.37;100346.94;4957231;28;45228;-88
2021/08/07 02:41:33;;;;;;;;;2.25;1.25;;;;;19.29;59.45;100336.53;4943149;28;45908;-85
2021/08/07 02:44:00;;;;;;;;;0.50;0.50;;;;;19.39;59.06;100339.34;4929183;28;48601;-85
2021/08/07 02:46:26;;;;;;;;;1.00;1.00;;;;;19.48;59.06;100340.47;4952333;28;45877;-85
2021/08/07 02:48:53;;;;;;;;;1.00;1.00;;;;;19.54;58.88;100325.78;4945214;28;45496;-85
2021/08/07 02:51:21;;;;;;;;;1.00;1.00;;;;;19.62;58.68;100333.19;4945826;28;46017;-85
2021/08/07 02:53:48;;;;;;;;;1.75;1.00;;;;;19.67;58.73;100333.69;4962917;28;45476;-85
2021/08/07 02:56:13;;;;;;;;;1.50;1.00;;;;;19.70;58.52;100336.13;4945675;28;45752;-85
2021/08/07 02:58:40;;;;;;;;;0.75;0.75;;;;;19.73;58.38;100325.19;4960833;28;45292;-86
2021/08/07 03:01:05;;;;;;;;;1.00;1.00;;;;;19.81;58.43;100323.72;4950818;28;45628;-86
2021/08/07 03:03:30;;;;;;;;;1.00;1.00;;;;;19.82;58.14;100320.09;4962494;28;46491;-86
2021/08/07 03:05:56;;;;;;;;;1.00;1.00;;;;;19.85;58.54;100325.22;4949707;28;45549;-86
2021/08/07 03:08:21;;;;;;;;;1.00;1.00;;;;;19.86;58.24;100321.56;4950820;28;45243;-86
2021/08/07 03:10:46;;;;;;;;;2.00;2.00;;;;;19.86;58.30;100322.41;4926420;28;46526;-86
2021/08/07 03:13:12;;;;;;;;;0.75;0.75;;;;;19.87;57.82;100320.59;4926237;28;48044;-86
2021/08/07 03:15:37;;;;;;;;;0.25;0.25;;;;;19.90;57.82;100323.03;4948427;28;45457;-86
2021/08/07 03:18:03;;;;;;;;;1.00;1.00;;;;;19.91;58.24;100314.03;4962767;28;45630;-86
2021/08/07 03:20:31;;;;;;;;;3.00;1.75;;;;;19.94;57.82;100321.81;4945596;28;47146;-92
2021/08/07 03:23:02;;;;;;;;;2.75;1.75;;;;;19.94;57.82;100319.13;4945770;28;48026;-94
2021/08/07 03:25:28;;;;;;;;;1.00;1.00;;;;;19.93;57.79;100306.75;4962816;28;45667;-88
2021/08/07 03:27:54;;;;;;;;;1.50;1.00;;;;;19.94;57.89;100308.47;4943342;28;45270;-88
2021/08/07 03:30:19;;;;;;;;;0.75;0.75;;;;;19.92;57.97;100301.56;4950270;28;45256;-88
2021/08/07 03:32:45;;;;;;;;;1.00;1.00;;;;;19.96;58.04;100303.00;4945511;28;48224;-94
2021/08/07 03:35:10;;;;;;;;;1.00;1.00;;;;;19.98;57.89;100306.38;4945382;28;45285;-88
2021/08/07 03:37:36;;;;;;;;;1.00;0.00;;;;;19.98;57.74;100301.91;4945460;28;45204;-83
2021/08/07 03:40:01;;;;;;;;;0.00;0.00;;;;;19.95;57.92;100291.47;4962783;28;45239;-84
2021/08/07 03:42:26;;;;;;;;;2.25;2.25;;;;;19.98;57.83;100285.06;4961931;28;45468;-85
2021/08/07 03:44:52;;;;;;;;;1.00;1.00;;;;;20.00;57.80;100299.13;4942931;28;45384;-85
2021/08/07 03:47:17;;;;;;;;;1.25;1.25;;;;;20.00;57.80;100296.47;4942359;28;45265;-85
2021/08/07 03:49:42;;;;;;;;;2.00;1.00;;;;;19.98;57.62;100291.25;4962389;28;45389;-84
2021/08/07 03:52:08;;;;;;;;;1.00;1.00;;;;;20.01;57.77;100288.34;4962078;28;45497;-85
2021/08/07 03:54:34;;;;;;;;;0.75;0.75;;;;;20.00;57.69;100289.28;4960952;28;45247;-85
2021/08/07 03:56:59;;;;;;;;;4.00;3.00;;;;;19.95;57.74;100278.13;4944846;28;45288;-89
2021/08/07 03:59:24;;;;;;;;;1.25;1.00;;;;;19.95;57.88;100275.47;4962401;28;45261;-89
2021/08/07 04:01:50;;;;;;;;;2.00;1.75;;;;;20.00;57.77;100277.78;4944598;28;48011;-89
2021/08/07 04:04:15;;;;;;;;;3.00;1.25;;;;;19.97;57.73;100265.56;4962069;28;45467;-89
2021/08/07 04:06:41;;;;;;;;;3.00;1.00;;;;;19.97;57.67;100273.56;4944172;28;45486;-89
2021/08/07 04:09:06;;;;;;;;;1.00;0.75;;;;;19.99;57.38;100276.09;4946407;28;45494;-90
2021/08/07 04:11:31;;;;;;;;;0.75;0.75;;;;;19.99;57.93;100270.75;4925312;28;48147;-89
2021/08/07 04:13:57;;;;;;;;;0.75;0.25;;;;;19.98;57.94;100269.03;4945389;28;45379;-86
2021/08/07 04:16:22;;;;;;;;;1.00;1.00;;;;;19.96;58.03;100271.84;4951945;28;45410;-84
2021/08/07 04:18:48;;;;;;;;;1.00;1.00;;;;;19.91;57.93;100268.69;4961782;28;45483;-84
2021/08/07 04:21:14;;;;;;;;;1.00;1.00;;;;;19.89;58.08;100268.84;4962280;28;45371;-85
2021/08/07 04:23:39;;;;;;;;;2.00;2.00;;;;;19.91;57.79;100274.03;4960019;28;45413;-85
2021/08/07 04:26:04;;;;;;;;;1.00;1.00;;;;;19.87;57.93;100264.59;4951456;28;45373;-86
2021/08/07 04:28:30;;;;;;;;;2.75;1.00;;;;;19.89;57.83;100276.84;4960204;28;45342;-83
2021/08/07 04:30:55;;;;;;;;;3.00;1.50;;;;;19.87;58.11;100264.59;4961403;28;45469;-83
2021/08/07 04:33:21;;;;;;;;;0.25;0.25;;;;;19.86;57.84;100263.75;4949806;28;45428;-87
2021/08/07 04:35:46;;;;;;;;;2.00;0.75;;;;;19.82;58.30;100264.13;4942190;28;45444;-88
2021/08/07 04:38:11;;;;;;;;;4.00;2.00;;;;;19.77;58.02;100270.66;4947585;28;45183;-93
2021/08/07 04:40:37;;;;;;;;;2.50;2.50;;;;;19.77;58.25;100267.16;4962320;28;46073;-93
2021/08/07 04:43:03;;;;;;;;;2.25;1.00;;;;;19.74;58.79;100262.06;4939598;28;45270;-87
2021/08/07 04:45:28;;;;;;;;;2.00;1.00;;;;;19.70;58.39;100266.81;4953840;28;45142;-88
2021/08/07 04:47:55;;;;;;;;;2.50;2.50;;;;;19.65;59.00;100269.84;4961855;28;45421;-89
2021/08/07 04:50:22;;;;;;;;;1.50;0.75;;;;;19.62;58.63;100274.53;4943709;28;47731;-89
2021/08/07 04:52:48;;;;;;;;;2.00;2.00;;;;;19.59;58.78;100264.97;4959594;28;45295;-88
2021/08/07 04:55:13;;;;;;;;;2.00;2.00;;;;;19.59;58.55;100266.78;4962016;28;45298;-89
2021/08/07 04:57:39;;;;;;;;;1.00;1.00;;;;;19.59;59.00;100266.78;4942294;28;45608;-84
2021/08/07 05:00:05;;;;;;;;;1.00;1.00;;;;;19.58;58.76;100257.13;4941885;28;45460;-85
2021/08/07 05:02:30;;;;;;;;;1.00;1.00;;;;;19.61;59.15;100249.72;4942442;28;46035;-94
2021/08/07 05:04:55;;;;;;;;;1.00;1.00;;;;;19.63;59.40;100260.25;4950336;28;45275;-93
2021/08/07 05:07:21;;;;;;;;;2.75;2.75;;;;;19.63;58.82;100246.94;4955360;28;45485;-93
2021/08/07 05:09:46;;;;;;;;;2.25;2.00;;;;;19.65;58.97;100253.00;4953971;28;45410;-91
2021/08/07 05:12:11;;;;;;;;;3.50;2.00;;;;;19.67;59.17;100256.38;4964455;28;45211;-96
2021/08/07 05:14:37;;;;;;;;;1.00;1.00;;;;;19.68;58.87;100253.56;4955517;28;44758;-93
2021/08/07 05:17:02;;;;;;;;;1.00;1.00;;;;;19.70;58.85;100253.47;4958556;28;45503;-91
2021/08/07 05:19:28;;;;;;;;;3.00;2.00;;;;;19.71;58.98;100243.63;4961601;28;45576;-88
2021/08/07 05:21:53;;;;;;;;;1.00;1.00;;;;;19.71;59.07;100240.97;4929270;28;45199;-87
2021/08/07 05:24:18;;;;;;;;;1.00;1.00;;;;;19.69;59.04;100233.09;4945973;28;45506;-87
2021/08/07 05:26:44;;;;;;;;;1.00;1.00;;;;;19.66;59.16;100233.34;4956761;28;45216;-87
2021/08/07 05:29:09;;;;;;;;;1.00;1.00;;;;;19.66;59.08;100228.88;4948291;28;47543;-87
2021/08/07 05:31:34;;;;;;;;;2.00;2.00;;;;;19.62;59.09;100226.56;4949504;28;45131;-88
2021/08/07 05:34:00;;;;;;;;;1.00;1.00;;;;;19.63;59.27;100218.44;4943787;28;45249;-86
2021/08/07 05:36:25;;;;;;;;;3.00;2.00;;;;;19.60;59.28;100216.03;4942977;28;46176;-87
2021/08/07 05:38:50;;;;;;;;;1.75;1.75;;;;;19.64;59.37;100224.63;4959599;28;48117;-87
2021/08/07 05:41:16;;;;;;;;;3.00;1.00;;;;;19.61;59.20;100220.38;4943101;28;45662;-87
2021/08/07 05:43:41;;;;;;;;;1.75;1.00;;;;;19.62;59.12;100227.41;4932969;28;45378;-92
2021/08/07 05:46:06;;;;;;;;;1.75;1.75;;;;;19.64;59.39;100229.94;4940240;28;46459;-92
2021/08/07 05:48:32;;;;;;;;;6.00;3.00;;;;;19.67;59.55;100229.72;4929381;28;48150;-92
2021/08/07 05:50:58;;;;;;;;;2.25;2.25;;;;;19.72;58.94;100238.19;4953806;28;45309;-91
2021/08/07 05:53:24;;;;;;;;;4.00;1.50;;;;;19.73;59.10;100231.88;4947860;28;45347;-91
2021/08/07 05:55:53;;;;;;;;;3.50;2.00;;;;;19.75;59.36;100223.78;4959795;28;45332;-92
2021/08/07 05:58:18;;;;;;;;;4.00;3.00;;;;;19.78;59.59;100220.84;4924228;28;46331;-91
2021/08/07 06:00:43;;;;;;;;;4.00;2.00;;;;;19.78;59.52;100227.03;4954187;28;45152;-91
2021/08/07 06:03:09;;;;;;;;;1.00;1.00;;;;;19.76;59.09;100210.31;4959273;28;45477;-92
2021/08/07 06:05:34;;;;;;;;;2.50;2.00;;;;;19.82;59.34;100221.44;4947920;28;45300;-91
2021/08/07 06:07:59;;;;;;;;;2.00;1.75;;;;;19.79;59.39;100217.22;4960645;28;45253;-92
2021/08/07 06:10:25;;;;;;;;;3.00;2.25;;;;;19.78;59.45;100216.34;4960096;28;45285;-91
2021/08/07 06:12:50;;;;;;;;;1.00;1.00;;;;;19.79;59.36;100230.53;4953897;28;45357;-86
2021/08/07 06:15:16;;;;;;;;;3.50;2.50;;;;;19.81;59.13;100233.94;4959423;28;46584;-84
2021/08/07 06:17:41;;;;;;;;;0.00;0.00;;;;;19.79;59.49;100236.72;4942878;28;47065;-87
2021/08/07 06:20:08;;;;;;;;;2.00;2.00;;;;;19.79;59.23;100239.41;4960273;28;45328;-86
2021/08/07 06:22:33;;;;;;;;;3.75;2.00;;;;;19.81;59.29;100238.41;4960140;28;45358;-87
2021/08/07 06:25:00;;;;;;;;;1.00;1.00;;;;;19.82;59.64;100232.13;4950192;28;45942;-87
2021/08/07 06:27:26;;;;;;;;;1.00;1.00;;;;;19.82;59.64;100232.13;4955776;28;47649;-87
2021/08/07 06:29:51;;;;;;;;;2.00;2.00;;;;;19.81;59.64;100227.75;4959745;28;45307;-86
2021/08/07 06:32:17;;;;;;;;;1.75;1.75;;;;;19.81;59.55;100225.06;4923930;28;45320;-86
2021/08/07 06:34:42;;;;;;;;;4.00;3.00;;;;;19.81;59.79;100222.41;4934270;28;45950;-87
2021/08/07 06:37:09;;;;;;;;;1.25;1.00;;;;;19.78;59.57;100216.34;4949202;28;45330;-93
2021/08/07 06:39:34;;;;;;;;;1.00;1.00;;;;;19.76;59.87;100220.13;4943692;28;45281;-91
2021/08/07 06:41:59;;;;;;;;;2.00;1.75;;;;;19.74;59.83;100214.91;4959940;28;45279;-90
2021/08/07 06:44:25;;;;;;;;;3.25;1.00;;;;;19.69;59.84;100211.78;4959666;28;45232;-90
2021/08/07 06:46:50;;;;;;;;;4.00;3.00;;;;;19.72;60.12;100205.34;4942667;28;47192;-91
2021/08/07 06:49:15;;;;;;;;;5.00;1.75;;;;;19.73;60.22;100213.22;4958741;28;45582;-88
2021/08/07 06:51:41;;;;;;;;;1.75;1.75;;;;;19.73;60.11;100212.41;4960274;28;45740;-87
2021/08/07 06:54:06;;;;;;;;;1.00;1.00;;;;;19.75;59.98;100210.44;4956132;28;45303;-87
2021/08/07 06:56:31;;;;;;;;;4.00;3.75;;;;;19.77;60.14;100206.69;4937003;28;46888;-87
2021/08/07 06:58:57;;;;;;;;;2.25;1.00;;;;;19.74;60.16;100209.59;4942924;28;45361;-83
2021/08/07 07:01:22;;;;;;;;;2.75;1.00;;;;;19.77;59.76;100211.16;4963546;28;45307;-83
2021/08/07 07:03:47;;;;;;;;;1.50;1.50;;;;;19.76;59.93;100196.13;4963384;28;45299;-88
2021/08/07 07:06:13;;;;;;;;;1.00;1.00;;;;;19.79;60.42;100206.53;4963020;28;46152;-92
2021/08/07 07:08:38;;;;;;;;;1.00;1.00;;;;;19.78;60.05;100205.69;4949864;28;45431;-87
2021/08/07 07:11:03;;;;;;;;;2.00;0.50;;;;;19.78;60.08;100205.69;4952244;28;45401;-83
2021/08/07 07:13:29;;;;;;;;;3.75;1.50;;;;;19.81;60.13;100209.94;4959495;28;45488;-79
2021/08/07 07:15:54;;;;;;;;;1.50;1.25;;;;;19.83;59.88;100218.66;4957582;28;46720;-83
2021/08/07 07:18:21;;;;;;;;;1.00;1.00;;;;;19.82;59.88;100216.13;4955815;28;45412;-83
2021/08/07 07:20:46;;;;;;;;;1.00;0.00;;;;;19.79;60.27;100207.41;4957318;28;45442;-76
2021/08/07 07:23:12;;;;;;;;;1.00;1.00;;;;;19.78;60.67;100197.69;4934192;28;47253;-84
2021/08/07 07:25:38;;;;;;;;;3.25;1.00;;;;;19.81;60.07;100209.06;4947106;28;45534;-84
2021/08/07 07:28:04;;;;;;;;;3.00;2.00;;;;;19.84;60.16;100214.16;4962681;28;45258;-83
2021/08/07 07:30:30;;;;;;;;;1.00;1.00;;;;;19.85;60.37;100206.03;4962464;28;45475;-83
2021/08/07 07:32:56;;;;;;;;;2.00;2.00;;;;;19.89;59.95;100212.84;4961683;28;46323;-79
2021/08/07 07:35:22;;;;;;;;;3.00;1.00;;;;;19.95;60.11;100205.31;4945412;28;46154;-79
2021/08/07 07:37:47;;;;;;;;;3.00;2.00;;;;;19.98;60.17;100203.22;4945519;28;45393;-79
2021/08/07 07:40:13;;;;;;;;;4.50;2.00;;;;;19.99;59.98;100199.59;4948462;28;45294;-79
2021/08/07 07:42:38;;;;;;;;;1.00;1.00;;;;;19.98;60.84;100195.22;4955548;28;45369;-80
2021/08/07 07:45:07;;;;;;;;;3.00;1.00;;;;;20.00;59.85;100192.44;4960501;28;45402;-80
2021/08/07 07:47:32;;;;;;;;;1.00;1.00;;;;;19.98;60.01;100192.56;4943689;28;45229;-79
2021/08/07 07:49:57;;;;;;;;;1.00;1.00;;;;;20.01;59.93;100183.47;4943486;28;45722;-79
2021/08/07 07:52:23;;;;;;;;;2.00;1.00;;;;;20.01;60.13;100189.66;4946374;28;45398;-79
2021/08/07 07:54:48;;;;;;;;;3.00;3.00;;;;;20.05;59.96;100179.56;4962345;28;45322;-79
2021/08/07 07:57:13;;;;;;;;;1.00;1.00;;;;;20.06;60.16;100175.94;4958853;28;45401;-79
2021/08/07 07:59:39;;;;;;;;;2.00;0.50;;;;;20.07;60.01;100172.31;4952115;28;45519;-79
2021/08/07 08:02:04;;;;;;;;;3.00;2.00;;;;;20.05;60.21;100168.88;4943213;28;45253;-79
2021/08/07 08:04:31;;;;;;;;;2.75;1.75;;;;;20.07;59.91;100160.78;4948712;28;45444;-79
2021/08/07 08:06:57;;;;;;;;;1.25;0.75;;;;;20.10;59.79;100171.19;4945153;28;45558;-79
2021/08/07 08:09:23;;;;;;;;;1.00;1.00;;;;;20.12;60.52;100166.63;4962099;28;45335;-80
2021/08/07 08:11:48;;;;;;;;;1.25;1.25;;;;;20.17;60.88;100175.09;4961060;28;45299;-81
2021/08/07 08:14:14;;;;;;;;;2.00;2.00;;;;;20.20;59.85;100165.97;4944457;28;47279;-83
2021/08/07 08:16:39;;;;;;;;;2.00;2.00;;;;;20.20;59.53;100156.13;4957758;28;45975;-82
2021/08/07 08:19:05;;;;;;;;;2.00;2.00;;;;;20.18;59.86;100158.09;4962034;28;45351;-78
2021/08/07 08:21:31;;;;;;;;;2.25;1.00;;;;;20.22;59.91;100151.50;4951758;28;45571;-80
2021/08/07 08:23:57;;;;;;;;;1.00;1.00;;;;;20.29;59.67;100143.00;4961508;28;45515;-80
2021/08/07 08:26:22;;;;;;;;;3.75;1.00;;;;;20.32;59.62;100146.25;4956860;28;45228;-80
2021/08/07 08:28:48;;;;;;;;;1.75;1.75;;;;;20.33;59.33;100134.59;4959860;28;45406;-80
2021/08/07 08:31:13;;;;;;;;;2.75;2.75;;;;;20.36;59.14;100136.16;4961983;28;45275;-80
2021/08/07 08:33:38;;;;;;;;;1.75;1.25;;;;;20.35;59.30;100132.66;4954826;28;45227;-81
2021/08/07 08:36:05;;;;;;;;;2.00;2.00;;;;;20.37;59.27;100135.22;4925060;28;45707;-82
2021/08/07 08:38:31;;;;;;;;;3.75;2.00;;;;;20.41;59.16;100136.63;4953838;28;45160;-81
2021/08/07 08:40:58;;;;;;;;;0.00;0.00;;;;;20.45;58.97;100134.53;4962113;28;45330;-80
2021/08/07 08:43:23;;;;;;;;;1.00;1.00;;;;;20.45;59.10;100127.38;4957715;28;46389;-80
2021/08/07 08:45:49;;;;;;;;;2.25;2.00;;;;;20.50;58.83;100128.81;4942628;28;45314;-81
2021/08/07 08:48:16;;;;;;;;;1.00;1.00;;;;;20.51;58.55;100128.69;4955319;28;45330;-81
2021/08/07 08:50:42;;;;;;;;;5.00;0.00;;;;;20.53;58.72;100131.22;4925315;28;47260;-80
2021/08/07 08:53:08;;;;;;;;;1.75;1.00;;;;;20.54;58.41;100116.91;4948413;28;47390;-81
2021/08/07 08:55:33;;;;;;;;;1.00;1.00;;;;;20.50;58.38;100123.47;4960564;28;45417;-80
2021/08/07 08:57:59;;;;;;;;;1.50;1.00;;;;;20.49;58.67;100111.97;4943512;28;45688;-80
2021/08/07 09:00:24;;;;;;;;;3.00;0.75;;;;;20.49;58.40;100113.78;4926434;28;45560;-80
2021/08/07 09:02:50;;;;;;;;;4.00;1.75;;;;;20.44;58.73;100114.16;4950058;28;46255;-80
2021/08/07 09:05:15;;;;;;;;;2.00;1.00;;;;;20.42;58.71;100108.13;4959305;28;45392;-81
2021/08/07 09:07:43;;;;;;;;;1.25;1.00;;;;;20.42;59.16;100111.63;4960899;28;45271;-81
2021/08/07 09:10:09;;;;;;;;;1.25;1.25;;;;;20.42;59.11;100103.59;4957740;28;45477;-81
2021/08/07 09:12:38;;;;;;;;;1.00;1.00;;;;;20.42;59.15;100108.94;4960902;28;46454;-81
2021/08/07 09:15:04;;;;;;;;;1.00;1.00;;;;;20.38;59.93;100104.84;4959207;28;45251;-80
2021/08/07 09:17:30;;;;;;;;;2.50;1.25;;;;;20.34;60.63;100108.78;4956165;28;45224;-80
2021/08/07 09:19:58;;;;;;;;;1.25;1.25;;;;;20.28;64.91;100118.13;4943859;28;46225;-80
2021/08/07 09:22:25;;;;;;;;;3.25;2.00;;;;;20.24;62.56;100106.03;4943328;28;48596;-80
2021/08/07 09:24:58;;;;;;;;;3.00;3.00;;;;;20.29;62.07;100100.31;4944013;28;45366;-80
2021/08/07 09:27:26;;;;;;;;;2.75;2.75;;;;;20.31;63.49;100099.22;4943200;28;45460;-80
2021/08/07 09:29:52;;;;;;;;;3.00;1.25;;;;;20.31;65.09;100088.53;4948708;28;45522;-80
2021/08/07 09:32:17;;;;;;;;;4.75;2.25;;;;;20.33;64.15;100097.25;4940351;28;48328;-80
2021/08/07 09:34:42;;;;;;;;;2.00;2.00;;;;;20.37;65.33;100097.84;4924555;28;45286;-80
2021/08/07 09:37:17;;;;;;;;;3.75;2.25;;;;;20.38;64.86;100090.66;4926835;28;45522;-79
2021/08/07 09:39:45;;;;;;;;;3.75;1.25;;;;;20.32;64.35;100100.06;4957883;28;46209;-79
2021/08/07 09:42:11;;;;;;;;;3.50;1.75;;;;;20.27;64.45;100096.94;4960475;28;46474;-79
2021/08/07 09:44:37;;;;;;;;;2.00;2.00;;;;;20.26;64.20;100096.06;4960414;28;45326;-79
2021/08/07 09:47:08;;;;;;;;;1.00;1.00;;;;;20.23;66.99;100099.84;4960808;28;45402;-79
2021/08/07 09:49:41;;;;;;;;;1.75;1.00;;;;;20.22;65.40;100100.81;4943428;28;46138;-79
2021/08/07 09:52:06;;;;;;;;;1.25;1.00;;;;;20.19;64.84;100092.25;4960644;28;46285;-79
2021/08/07 09:54:50;;;;;;;;;1.75;1.75;;;;;20.18;64.32;100102.06;4960716;28;45438;-79
2021/08/07 09:57:27;;;;;;;;;2.00;2.00;;;;;20.19;64.40;100090.41;4947556;28;45256;-79
2021/08/07 09:59:52;;;;;;;;;1.00;1.00;;;;;20.22;64.27;100100.81;4960726;28;45485;-78
2021/08/07 10:02:31;;;;;;;;;1.00;1.00;;;;;20.27;65.34;100096.94;4960443;28;45531;-79
2021/08/07 10:04:58;;;;;;;;;2.50;2.50;;;;;20.30;66.25;100097.50;4957937;28;45645;-79
2021/08/07 10:07:24;;;;;;;;;0.25;0.25;;;;;20.32;63.66;100108.88;4957471;28;45464;-79
2021/08/07 10:09:49;;;;;;;;;1.00;1.00;;;;;20.26;63.45;100100.56;4960222;28;45480;-78
2021/08/07 10:12:16;;;;;;;;;0.75;0.75;;;;;20.27;63.64;100095.13;4959954;28;46282;-79
2021/08/07 10:14:43;;;;;;;;;1.25;1.25;;;;;20.28;63.64;100091.44;4960088;28;45627;-79
2021/08/07 10:17:10;;;;;;;;;1.75;1.00;;;;;20.31;64.82;100090.34;4959351;28;45445;-79
2021/08/07 10:19:37;;;;;;;;;1.00;1.00;;;;;20.33;63.58;100096.41;4942560;28;45763;-78
2021/08/07 10:22:06;;;;;;;;;2.00;1.00;;;;;20.34;62.35;100087.44;4943976;28;46473;-79
2021/08/07 10:24:33;;;;;;;;;1.00;1.00;;;;;20.31;64.12;100082.34;4941355;28;45276;-78
2021/08/07 10:26:59;;;;;;;;;1.75;1.25;;;;;20.29;63.27;100090.50;4951720;28;45299;-79
2021/08/07 10:29:55;;;;;;;;;3.00;1.50;;;;;20.24;64.44;100093.56;4960618;28;45204;-79
2021/08/07 10:32:23;;;;;;;;;0.50;0.25;;;;;20.20;64.86;100086.75;4926794;28;45317;-79
2021/08/07 10:34:50;;;;;;;;;1.00;1.00;;;;;20.16;64.50;100077.34;4962196;28;45286;-79
2021/08/07 10:37:16;;;;;;;;;1.00;1.00;;;;;20.13;64.39;100066.91;4944598;28;45309;-79
2021/08/07 10:39:42;;;;;;;;;2.25;2.00;;;;;20.18;65.11;100061.19;4960689;28;45415;-79
2021/08/07 10:42:08;;;;;;;;;3.00;2.00;;;;;20.20;65.00;100060.09;4962874;28;46632;-79
2021/08/07 10:44:35;;;;;;;;;1.50;1.50;;;;;20.27;65.19;100056.91;4953908;28;45592;-79
2021/08/07 10:47:00;;;;;;;;;3.00;1.50;;;;;20.30;65.01;100053.97;4944061;28;45276;-79
2021/08/07 10:49:52;;;;;;;;;1.75;1.00;;;;;20.34;65.46;100061.59;4957351;28;46046;-79
2021/08/07 10:52:20;;;;;;;;;3.00;1.75;;;;;20.37;65.62;100063.16;4950670;28;46519;-78
2021/08/07 10:54:45;;;;;;;;;3.00;2.00;;;;;20.39;65.34;100052.34;4963575;28;45224;-79
2021/08/07 10:57:38;;;;;;;;;2.00;2.00;;;;;20.42;66.31;100060.09;4959740;28;45370;-79
2021/08/07 11:00:12;;;;;;;;;2.00;1.00;;;;;20.50;65.27;100048.72;4955612;28;45398;-79
2021/08/07 11:02:38;;;;;;;;;2.50;1.75;;;;;20.48;66.71;100048.03;4942108;28;47285;-79
2021/08/07 11:05:04;;;;;;;;;1.75;1.00;;;;;20.45;66.26;100052.66;4957741;28;45620;-79
2021/08/07 11:07:30;;;;;;;;;3.00;1.00;;;;;20.44;65.08;100061.66;4962658;28;45374;-79
2021/08/07 11:10:30;;;;;;;;;0.50;0.50;;;;;20.44;64.74;100058.97;4963131;28;45765;-79
2021/08/07 11:13:26;;;;;;;;;1.00;1.00;;;;;20.43;64.56;100049.28;4944246;28;47501;-79
2021/08/07 11:16:20;;;;;;;;;1.75;1.75;;;;;20.52;64.22;100052.94;4956213;28;45488;-79
2021/08/07 11:18:47;;;;;;;;;1.50;0.75;;;;;20.44;63.87;100048.31;4962766;28;45351;-79
2021/08/07 11:21:48;;;;;;;;;1.00;1.00;;;;;20.43;63.76;100043.09;4945085;28;47262;-79
2021/08/07 11:24:49;;;;;;;;;1.00;1.00;;;;;20.41;65.03;100027.22;4945696;28;48213;-79